sensor_id;sensor_type;location;lat;lon;timestamp;P1;durP1;ratioP1;P2;durP2;ratioP2
59685;SDS011;45554;51.096;16.976;2022-08-03T00:04:16;6.20;;;3.30;;
59685;SDS011;45554;51.096;16.976;2022-08-03T00:06:46;5.50;;;2.60;;
59685;SDS011;45554;51.096;16.976;2022-08-03T00:09:15;4.40;;;2.90;;
59685;SDS011;45554;51.096;16.976;2022-08-03T00:11:44;6.60;;;3.30;;
59685;SDS011;45554;51.096;16.976;2022-08-03T00:14:18;5.50;;;2.90;;
59685;SDS011;45554;51.096;16.976;2022-08-03T00:16:48;5.50;;;3.20;;
59685;SDS011;45554;51.096;16.976;2022-08-03T00:21:46;5.30;;;3.30;;
59685;SDS011;45554;51.096;16.976;2022-08-03T00:24:14;4.90;;;3.00;;
59685;SDS011;45554;51.096;16.976;2022-08-03T00:26:42;7.70;;;3.10;;
59685;SDS011;45554;51.096;16.976;2022-08-03T00:29:10;5.80;;;3.70;;
59685;SDS011;45554;51.096;16.976;2022-08-03T00:31:38;7.70;;;3.40;;
59685;SDS011;45554;51.096;16.976;2022-08-03T00:34:27;7.90;;;3.40;;
59685;SDS011;45554;51.096;16.976;2022-08-03T00:37:03;6.10;;;3.60;;
59685;SDS011;45554;51.096;16.976;2022-08-03T00:39:31;7.20;;;3.60;;
59685;SDS011;45554;51.096;16.976;2022-08-03T00:42:03;5.70;;;3.20;;
59685;SDS011;45554;51.096;16.976;2022-08-03T00:44:38;6.20;;;3.70;;
59685;SDS011;45554;51.096;16.976;2022-08-03T00:47:08;6.80;;;3.90;;
59685;SDS011;45554;51.096;16.976;2022-08-03T00:49:37;6.00;;;3.90;;
59685;SDS011;45554;51.096;16.976;2022-08-03T00:52:10;6.50;;;3.70;;
59685;SDS011;45554;51.096;16.976;2022-08-03T00:54:41;5.00;;;3.30;;
59685;SDS011;45554;51.096;16.976;2022-08-03T00:57:11;7.20;;;3.60;;
59685;SDS011;45554;51.096;16.976;2022-08-03T00:59:39;5.50;;;3.50;;
59685;SDS011;45554;51.096;16.976;2022-08-03T01:02:08;6.50;;;3.70;;
59685;SDS011;45554;51.096;16.976;2022-08-03T01:04:36;7.00;;;3.50;;
59685;SDS011;45554;51.096;16.976;2022-08-03T01:09:56;7.60;;;3.90;;
59685;SDS011;45554;51.096;16.976;2022-08-03T01:12:37;6.70;;;3.40;;
59685;SDS011;45554;51.096;16.976;2022-08-03T01:20:56;6.20;;;3.50;;
59685;SDS011;45554;51.096;16.976;2022-08-03T01:23:36;6.30;;;3.40;;
59685;SDS011;45554;51.096;16.976;2022-08-03T01:32:30;5.20;;;3.20;;
59685;SDS011;45554;51.096;16.976;2022-08-03T01:35:43;7.10;;;3.20;;
59685;SDS011;45554;51.096;16.976;2022-08-03T01:38:50;6.00;;;3.30;;
59685;SDS011;45554;51.096;16.976;2022-08-03T01:41:16;6.10;;;3.60;;
59685;SDS011;45554;51.096;16.976;2022-08-03T01:43:47;8.10;;;3.90;;
59685;SDS011;45554;51.096;16.976;2022-08-03T01:46:38;6.90;;;4.00;;
59685;SDS011;45554;51.096;16.976;2022-08-03T01:49:15;5.90;;;3.60;;
59685;SDS011;45554;51.096;16.976;2022-08-03T01:51:46;6.20;;;4.00;;
59685;SDS011;45554;51.096;16.976;2022-08-03T01:54:32;8.10;;;4.50;;
59685;SDS011;45554;51.096;16.976;2022-08-03T01:57:08;8.30;;;4.30;;
59685;SDS011;45554;51.096;16.976;2022-08-03T01:59:38;7.10;;;4.00;;
59685;SDS011;45554;51.096;16.976;2022-08-03T02:02:09;7.90;;;4.10;;
59685;SDS011;45554;51.096;16.976;2022-08-03T02:05:00;7.00;;;4.20;;
59685;SDS011;45554;51.096;16.976;2022-08-03T02:07:39;6.50;;;3.70;;
59685;SDS011;45554;51.096;16.976;2022-08-03T02:10:10;5.70;;;4.00;;
59685;SDS011;45554;51.096;16.976;2022-08-03T02:12:41;8.10;;;3.80;;
59685;SDS011;45554;51.096;16.976;2022-08-03T02:15:14;7.80;;;4.10;;
59685;SDS011;45554;51.096;16.976;2022-08-03T02:17:43;5.90;;;3.70;;
59685;SDS011;45554;51.096;16.976;2022-08-03T02:20:15;6.50;;;3.90;;
59685;SDS011;45554;51.096;16.976;2022-08-03T02:22:46;6.40;;;3.80;;
59685;SDS011;45554;51.096;16.976;2022-08-03T02:28:07;5.40;;;3.70;;
59685;SDS011;45554;51.096;16.976;2022-08-03T02:30:39;6.20;;;3.70;;
59685;SDS011;45554;51.096;16.976;2022-08-03T02:33:24;7.70;;;4.10;;
59685;SDS011;45554;51.096;16.976;2022-08-03T02:35:57;6.40;;;3.80;;
59685;SDS011;45554;51.096;16.976;2022-08-03T02:38:30;6.80;;;4.40;;
59685;SDS011;45554;51.096;16.976;2022-08-03T02:41:04;6.50;;;3.70;;
59685;SDS011;45554;51.096;16.976;2022-08-03T02:43:36;7.40;;;4.40;;
59685;SDS011;45554;51.096;16.976;2022-08-03T02:46:28;7.10;;;4.10;;
59685;SDS011;45554;51.096;16.976;2022-08-03T02:49:00;9.50;;;4.60;;
59685;SDS011;45554;51.096;16.976;2022-08-03T02:51:53;7.20;;;4.20;;
59685;SDS011;45554;51.096;16.976;2022-08-03T02:54:25;7.70;;;4.80;;
59685;SDS011;45554;51.096;16.976;2022-08-03T02:56:56;8.90;;;4.40;;
59685;SDS011;45554;51.096;16.976;2022-08-03T02:59:27;8.00;;;4.90;;
59685;SDS011;45554;51.096;16.976;2022-08-03T03:01:59;6.50;;;4.40;;
59685;SDS011;45554;51.096;16.976;2022-08-03T03:04:28;6.70;;;4.00;;
59685;SDS011;45554;51.096;16.976;2022-08-03T03:07:02;7.90;;;5.00;;
59685;SDS011;45554;51.096;16.976;2022-08-03T03:09:31;8.20;;;4.50;;
59685;SDS011;45554;51.096;16.976;2022-08-03T03:12:10;7.90;;;4.70;;
59685;SDS011;45554;51.096;16.976;2022-08-03T03:14:41;8.10;;;4.50;;
59685;SDS011;45554;51.096;16.976;2022-08-03T03:17:10;7.90;;;4.90;;
59685;SDS011;45554;51.096;16.976;2022-08-03T03:19:39;8.40;;;4.90;;
59685;SDS011;45554;51.096;16.976;2022-08-03T03:22:12;7.40;;;4.70;;
59685;SDS011;45554;51.096;16.976;2022-08-03T03:24:43;8.60;;;4.80;;
59685;SDS011;45554;51.096;16.976;2022-08-03T03:27:14;7.00;;;4.60;;
59685;SDS011;45554;51.096;16.976;2022-08-03T03:29:44;8.40;;;4.90;;
59685;SDS011;45554;51.096;16.976;2022-08-03T03:32:13;9.90;;;4.90;;
59685;SDS011;45554;51.096;16.976;2022-08-03T03:34:42;6.80;;;4.70;;
59685;SDS011;45554;51.096;16.976;2022-08-03T03:37:11;7.50;;;4.90;;
59685;SDS011;45554;51.096;16.976;2022-08-03T03:39:38;8.90;;;4.70;;
59685;SDS011;45554;51.096;16.976;2022-08-03T03:42:06;9.60;;;5.10;;
59685;SDS011;45554;51.096;16.976;2022-08-03T03:44:36;8.30;;;4.90;;
59685;SDS011;45554;51.096;16.976;2022-08-03T03:47:05;7.60;;;4.60;;
59685;SDS011;45554;51.096;16.976;2022-08-03T03:49:37;8.30;;;4.90;;
59685;SDS011;45554;51.096;16.976;2022-08-03T03:52:06;8.50;;;4.70;;
59685;SDS011;45554;51.096;16.976;2022-08-03T03:54:41;8.70;;;4.60;;
59685;SDS011;45554;51.096;16.976;2022-08-03T03:57:10;8.80;;;4.80;;
59685;SDS011;45554;51.096;16.976;2022-08-03T03:59:40;8.50;;;4.90;;
59685;SDS011;45554;51.096;16.976;2022-08-03T04:02:10;9.70;;;5.20;;
59685;SDS011;45554;51.096;16.976;2022-08-03T04:04:39;10.00;;;4.90;;
59685;SDS011;45554;51.096;16.976;2022-08-03T04:07:26;10.40;;;5.10;;
59685;SDS011;45554;51.096;16.976;2022-08-03T04:10:17;7.90;;;4.50;;
59685;SDS011;45554;51.096;16.976;2022-08-03T04:13:08;7.00;;;4.40;;
59685;SDS011;45554;51.096;16.976;2022-08-03T04:15:39;8.10;;;4.70;;
59685;SDS011;45554;51.096;16.976;2022-08-03T04:18:09;7.70;;;5.00;;
59685;SDS011;45554;51.096;16.976;2022-08-03T04:20:39;6.60;;;4.50;;
59685;SDS011;45554;51.096;16.976;2022-08-03T04:23:14;8.10;;;4.70;;
59685;SDS011;45554;51.096;16.976;2022-08-03T04:25:47;7.20;;;4.40;;
59685;SDS011;45554;51.096;16.976;2022-08-03T04:28:18;7.40;;;5.00;;
59685;SDS011;45554;51.096;16.976;2022-08-03T04:30:58;8.60;;;4.80;;
59685;SDS011;45554;51.096;16.976;2022-08-03T04:33:30;8.90;;;4.80;;
59685;SDS011;45554;51.096;16.976;2022-08-03T04:36:02;9.30;;;4.70;;
59685;SDS011;45554;51.096;16.976;2022-08-03T04:38:43;9.50;;;4.90;;
59685;SDS011;45554;51.096;16.976;2022-08-03T04:41:24;7.20;;;4.40;;
59685;SDS011;45554;51.096;16.976;2022-08-03T04:43:55;7.90;;;4.30;;
59685;SDS011;45554;51.096;16.976;2022-08-03T04:46:31;9.60;;;4.80;;
59685;SDS011;45554;51.096;16.976;2022-08-03T04:49:02;7.90;;;4.80;;
59685;SDS011;45554;51.096;16.976;2022-08-03T04:51:33;8.00;;;4.70;;
59685;SDS011;45554;51.096;16.976;2022-08-03T04:54:05;9.00;;;5.10;;
59685;SDS011;45554;51.096;16.976;2022-08-03T04:56:33;8.60;;;5.20;;
59685;SDS011;45554;51.096;16.976;2022-08-03T04:59:01;10.20;;;5.00;;
59685;SDS011;45554;51.096;16.976;2022-08-03T05:01:32;10.70;;;5.10;;
59685;SDS011;45554;51.096;16.976;2022-08-03T05:03:59;7.60;;;4.70;;
59685;SDS011;45554;51.096;16.976;2022-08-03T05:06:27;10.50;;;5.10;;
59685;SDS011;45554;51.096;16.976;2022-08-03T05:08:56;11.20;;;5.00;;
59685;SDS011;45554;51.096;16.976;2022-08-03T05:11:24;10.00;;;4.70;;
59685;SDS011;45554;51.096;16.976;2022-08-03T05:13:52;11.90;;;5.10;;
59685;SDS011;45554;51.096;16.976;2022-08-03T05:16:20;11.70;;;5.00;;
59685;SDS011;45554;51.096;16.976;2022-08-03T05:18:48;7.70;;;4.60;;
59685;SDS011;45554;51.096;16.976;2022-08-03T05:21:17;7.40;;;4.80;;
59685;SDS011;45554;51.096;16.976;2022-08-03T05:23:46;9.20;;;4.80;;
59685;SDS011;45554;51.096;16.976;2022-08-03T05:26:14;8.00;;;4.60;;
59685;SDS011;45554;51.096;16.976;2022-08-03T05:28:42;8.80;;;4.80;;
59685;SDS011;45554;51.096;16.976;2022-08-03T05:31:18;10.20;;;4.70;;
59685;SDS011;45554;51.096;16.976;2022-08-03T05:33:46;12.00;;;4.50;;
59685;SDS011;45554;51.096;16.976;2022-08-03T05:36:15;7.10;;;4.20;;
59685;SDS011;45554;51.096;16.976;2022-08-03T05:38:43;10.30;;;4.10;;
59685;SDS011;45554;51.096;16.976;2022-08-03T05:41:12;7.90;;;4.10;;
59685;SDS011;45554;51.096;16.976;2022-08-03T05:43:51;7.20;;;4.80;;
59685;SDS011;45554;51.096;16.976;2022-08-03T05:46:20;8.90;;;4.30;;
59685;SDS011;45554;51.096;16.976;2022-08-03T05:48:51;7.30;;;4.70;;
59685;SDS011;45554;51.096;16.976;2022-08-03T05:51:19;7.10;;;4.40;;
59685;SDS011;45554;51.096;16.976;2022-08-03T05:53:47;8.30;;;4.30;;
59685;SDS011;45554;51.096;16.976;2022-08-03T05:56:15;8.30;;;4.60;;
59685;SDS011;45554;51.096;16.976;2022-08-03T05:58:44;9.20;;;5.30;;
59685;SDS011;45554;51.096;16.976;2022-08-03T06:01:16;9.80;;;4.10;;
59685;SDS011;45554;51.096;16.976;2022-08-03T06:03:46;8.90;;;3.80;;
59685;SDS011;45554;51.096;16.976;2022-08-03T06:06:15;7.80;;;4.20;;
59685;SDS011;45554;51.096;16.976;2022-08-03T06:08:47;4.80;;;3.30;;
59685;SDS011;45554;51.096;16.976;2022-08-03T06:11:15;6.70;;;3.60;;
59685;SDS011;45554;51.096;16.976;2022-08-03T06:13:44;7.20;;;3.70;;
59685;SDS011;45554;51.096;16.976;2022-08-03T06:16:12;6.40;;;3.50;;
59685;SDS011;45554;51.096;16.976;2022-08-03T06:18:42;6.30;;;3.90;;
59685;SDS011;45554;51.096;16.976;2022-08-03T06:21:13;6.60;;;3.40;;
59685;SDS011;45554;51.096;16.976;2022-08-03T06:23:43;6.40;;;3.70;;
59685;SDS011;45554;51.096;16.976;2022-08-03T06:26:20;7.30;;;3.40;;
59685;SDS011;45554;51.096;16.976;2022-08-03T06:28:48;6.60;;;3.90;;
59685;SDS011;45554;51.096;16.976;2022-08-03T06:31:21;5.40;;;3.50;;
59685;SDS011;45554;51.096;16.976;2022-08-03T06:34:03;6.90;;;3.80;;
59685;SDS011;45554;51.096;16.976;2022-08-03T06:36:52;10.70;;;3.70;;
59685;SDS011;45554;51.096;16.976;2022-08-03T06:39:28;6.40;;;3.50;;
59685;SDS011;45554;51.096;16.976;2022-08-03T06:41:57;10.10;;;3.50;;
59685;SDS011;45554;51.096;16.976;2022-08-03T06:44:25;7.20;;;3.50;;
59685;SDS011;45554;51.096;16.976;2022-08-03T06:46:53;6.00;;;3.80;;
59685;SDS011;45554;51.096;16.976;2022-08-03T06:51:50;7.40;;;3.20;;
59685;SDS011;45554;51.096;16.976;2022-08-03T06:54:32;6.50;;;3.30;;
59685;SDS011;45554;51.096;16.976;2022-08-03T06:57:04;5.20;;;3.50;;
59685;SDS011;45554;51.096;16.976;2022-08-03T06:59:32;5.40;;;3.00;;
59685;SDS011;45554;51.096;16.976;2022-08-03T07:02:20;8.30;;;3.60;;
59685;SDS011;45554;51.096;16.976;2022-08-03T07:04:49;4.70;;;3.40;;
59685;SDS011;45554;51.096;16.976;2022-08-03T07:09:47;5.40;;;3.20;;
59685;SDS011;45554;51.096;16.976;2022-08-03T07:12:28;4.00;;;2.50;;
59685;SDS011;45554;51.096;16.976;2022-08-03T07:14:57;4.00;;;2.80;;
59685;SDS011;45554;51.096;16.976;2022-08-03T07:17:30;7.90;;;3.10;;
59685;SDS011;45554;51.096;16.976;2022-08-03T07:20:00;6.70;;;3.10;;
59685;SDS011;45554;51.096;16.976;2022-08-03T07:22:30;6.40;;;2.80;;
59685;SDS011;45554;51.096;16.976;2022-08-03T07:24:58;4.20;;;2.70;;
59685;SDS011;45554;51.096;16.976;2022-08-03T07:27:27;5.20;;;2.60;;
59685;SDS011;45554;51.096;16.976;2022-08-03T07:29:57;3.70;;;2.60;;
59685;SDS011;45554;51.096;16.976;2022-08-03T07:32:25;3.80;;;2.50;;
59685;SDS011;45554;51.096;16.976;2022-08-03T07:34:55;5.10;;;2.70;;
59685;SDS011;45554;51.096;16.976;2022-08-03T07:37:28;5.70;;;2.70;;
59685;SDS011;45554;51.096;16.976;2022-08-03T07:39:56;4.40;;;2.90;;
59685;SDS011;45554;51.096;16.976;2022-08-03T07:42:25;3.60;;;2.40;;
59685;SDS011;45554;51.096;16.976;2022-08-03T07:44:54;4.90;;;2.90;;
59685;SDS011;45554;51.096;16.976;2022-08-03T07:47:23;4.80;;;2.70;;
59685;SDS011;45554;51.096;16.976;2022-08-03T07:50:03;3.50;;;2.50;;
59685;SDS011;45554;51.096;16.976;2022-08-03T07:52:35;4.90;;;2.80;;
59685;SDS011;45554;51.096;16.976;2022-08-03T07:55:20;3.70;;;2.50;;
59685;SDS011;45554;51.096;16.976;2022-08-03T07:57:59;8.90;;;2.60;;
59685;SDS011;45554;51.096;16.976;2022-08-03T08:00:36;6.70;;;2.70;;
59685;SDS011;45554;51.096;16.976;2022-08-03T08:03:05;5.80;;;2.70;;
59685;SDS011;45554;51.096;16.976;2022-08-03T08:05:37;3.70;;;2.50;;
59685;SDS011;45554;51.096;16.976;2022-08-03T08:08:05;5.50;;;2.30;;
59685;SDS011;45554;51.096;16.976;2022-08-03T08:10:34;3.90;;;2.10;;
59685;SDS011;45554;51.096;16.976;2022-08-03T08:13:02;4.60;;;2.60;;
59685;SDS011;45554;51.096;16.976;2022-08-03T08:15:31;4.00;;;2.40;;
59685;SDS011;45554;51.096;16.976;2022-08-03T08:17:59;4.30;;;2.40;;
59685;SDS011;45554;51.096;16.976;2022-08-03T08:20:31;6.30;;;2.20;;
59685;SDS011;45554;51.096;16.976;2022-08-03T08:23:04;3.10;;;2.40;;
59685;SDS011;45554;51.096;16.976;2022-08-03T08:25:55;3.20;;;2.10;;
59685;SDS011;45554;51.096;16.976;2022-08-03T08:28:24;3.00;;;2.10;;
59685;SDS011;45554;51.096;16.976;2022-08-03T08:31:00;3.50;;;2.20;;
59685;SDS011;45554;51.096;16.976;2022-08-03T08:33:29;3.60;;;2.10;;
59685;SDS011;45554;51.096;16.976;2022-08-03T08:36:17;2.60;;;2.10;;
59685;SDS011;45554;51.096;16.976;2022-08-03T08:38:45;3.20;;;2.40;;
59685;SDS011;45554;51.096;16.976;2022-08-03T08:41:14;4.00;;;2.30;;
59685;SDS011;45554;51.096;16.976;2022-08-03T08:43:42;3.20;;;2.30;;
59685;SDS011;45554;51.096;16.976;2022-08-03T08:46:11;2.60;;;2.30;;
59685;SDS011;45554;51.096;16.976;2022-08-03T08:48:50;3.30;;;2.10;;
59685;SDS011;45554;51.096;16.976;2022-08-03T08:51:25;2.80;;;2.00;;
59685;SDS011;45554;51.096;16.976;2022-08-03T08:54:17;5.80;;;2.40;;
59685;SDS011;45554;51.096;16.976;2022-08-03T08:56:52;4.00;;;2.30;;
59685;SDS011;45554;51.096;16.976;2022-08-03T08:59:23;4.40;;;2.30;;
59685;SDS011;45554;51.096;16.976;2022-08-03T09:01:55;3.90;;;2.20;;
59685;SDS011;45554;51.096;16.976;2022-08-03T09:04:24;5.40;;;2.40;;
59685;SDS011;45554;51.096;16.976;2022-08-03T09:06:54;2.70;;;1.80;;
59685;SDS011;45554;51.096;16.976;2022-08-03T09:09:42;3.50;;;1.90;;
59685;SDS011;45554;51.096;16.976;2022-08-03T09:12:36;3.40;;;1.60;;
59685;SDS011;45554;51.096;16.976;2022-08-03T09:15:22;3.00;;;2.00;;
59685;SDS011;45554;51.096;16.976;2022-08-03T09:17:54;4.20;;;2.10;;
59685;SDS011;45554;51.096;16.976;2022-08-03T09:20:23;3.10;;;2.00;;
59685;SDS011;45554;51.096;16.976;2022-08-03T09:28:04;3.30;;;2.00;;
59685;SDS011;45554;51.096;16.976;2022-08-03T09:30:36;3.70;;;1.70;;
59685;SDS011;45554;51.096;16.976;2022-08-03T09:33:07;3.10;;;1.80;;
59685;SDS011;45554;51.096;16.976;2022-08-03T09:35:43;3.50;;;1.80;;
59685;SDS011;45554;51.096;16.976;2022-08-03T09:38:24;2.90;;;1.80;;
59685;SDS011;45554;51.096;16.976;2022-08-03T09:40:55;3.00;;;1.90;;
59685;SDS011;45554;51.096;16.976;2022-08-03T09:43:27;3.70;;;2.00;;
59685;SDS011;45554;51.096;16.976;2022-08-03T09:46:01;5.10;;;1.90;;
59685;SDS011;45554;51.096;16.976;2022-08-03T09:48:31;2.70;;;2.10;;
59685;SDS011;45554;51.096;16.976;2022-08-03T09:51:03;4.50;;;2.00;;
59685;SDS011;45554;51.096;16.976;2022-08-03T09:53:52;2.40;;;1.60;;
59685;SDS011;45554;51.096;16.976;2022-08-03T09:59:12;2.70;;;1.90;;
59685;SDS011;45554;51.096;16.976;2022-08-03T10:01:40;4.70;;;1.80;;
59685;SDS011;45554;51.096;16.976;2022-08-03T10:04:12;4.50;;;2.10;;
59685;SDS011;45554;51.096;16.976;2022-08-03T10:06:45;2.70;;;1.70;;
59685;SDS011;45554;51.096;16.976;2022-08-03T10:09:29;3.60;;;2.00;;
59685;SDS011;45554;51.096;16.976;2022-08-03T10:12:05;3.50;;;1.60;;
59685;SDS011;45554;51.096;16.976;2022-08-03T10:14:35;3.40;;;1.70;;
59685;SDS011;45554;51.096;16.976;2022-08-03T10:17:08;4.00;;;1.90;;
59685;SDS011;45554;51.096;16.976;2022-08-03T10:22:09;3.40;;;2.00;;
59685;SDS011;45554;51.096;16.976;2022-08-03T10:25:03;2.80;;;1.80;;
59685;SDS011;45554;51.096;16.976;2022-08-03T10:27:38;2.60;;;1.60;;
59685;SDS011;45554;51.096;16.976;2022-08-03T10:30:10;2.70;;;1.60;;
59685;SDS011;45554;51.096;16.976;2022-08-03T10:32:40;3.80;;;1.70;;
59685;SDS011;45554;51.096;16.976;2022-08-03T10:35:11;3.50;;;1.70;;
59685;SDS011;45554;51.096;16.976;2022-08-03T10:37:51;2.50;;;1.70;;
59685;SDS011;45554;51.096;16.976;2022-08-03T10:43:17;4.30;;;1.80;;
59685;SDS011;45554;51.096;16.976;2022-08-03T10:45:49;3.00;;;1.80;;
59685;SDS011;45554;51.096;16.976;2022-08-03T10:48:19;2.10;;;1.60;;
59685;SDS011;45554;51.096;16.976;2022-08-03T10:50:48;2.10;;;1.50;;
59685;SDS011;45554;51.096;16.976;2022-08-03T10:53:32;5.70;;;1.90;;
59685;SDS011;45554;51.096;16.976;2022-08-03T10:56:03;3.70;;;2.00;;
59685;SDS011;45554;51.096;16.976;2022-08-03T10:59:10;2.60;;;1.90;;
59685;SDS011;45554;51.096;16.976;2022-08-03T11:01:53;4.20;;;1.90;;
59685;SDS011;45554;51.096;16.976;2022-08-03T11:04:27;2.50;;;1.80;;
59685;SDS011;45554;51.096;16.976;2022-08-03T11:07:17;2.20;;;1.60;;
59685;SDS011;45554;51.096;16.976;2022-08-03T11:09:54;4.60;;;1.70;;
59685;SDS011;45554;51.096;16.976;2022-08-03T11:12:26;3.00;;;1.80;;
59685;SDS011;45554;51.096;16.976;2022-08-03T11:15:00;4.10;;;1.80;;
59685;SDS011;45554;51.096;16.976;2022-08-03T11:17:35;2.70;;;1.90;;
59685;SDS011;45554;51.096;16.976;2022-08-03T11:26:33;3.20;;;1.60;;
59685;SDS011;45554;51.096;16.976;2022-08-03T11:29:25;4.10;;;1.70;;
59685;SDS011;45554;51.096;16.976;2022-08-03T11:31:57;5.10;;;1.80;;
59685;SDS011;45554;51.096;16.976;2022-08-03T11:39:56;2.60;;;1.80;;
59685;SDS011;45554;51.096;16.976;2022-08-03T11:44:57;2.60;;;1.60;;
59685;SDS011;45554;51.096;16.976;2022-08-03T11:47:27;1.70;;;1.50;;
59685;SDS011;45554;51.096;16.976;2022-08-03T11:49:57;4.00;;;1.60;;
59685;SDS011;45554;51.096;16.976;2022-08-03T11:52:36;4.40;;;1.50;;
59685;SDS011;45554;51.096;16.976;2022-08-03T11:55:10;4.40;;;1.40;;
59685;SDS011;45554;51.096;16.976;2022-08-03T11:57:39;1.80;;;1.40;;
59685;SDS011;45554;51.096;16.976;2022-08-03T12:00:28;2.60;;;1.40;;
59685;SDS011;45554;51.096;16.976;2022-08-03T12:03:05;2.00;;;1.50;;
59685;SDS011;45554;51.096;16.976;2022-08-03T12:05:45;1.50;;;1.30;;
59685;SDS011;45554;51.096;16.976;2022-08-03T12:10:53;2.30;;;1.50;;
59685;SDS011;45554;51.096;16.976;2022-08-03T12:13:23;2.40;;;1.40;;
59685;SDS011;45554;51.096;16.976;2022-08-03T12:16:16;3.20;;;1.40;;
59685;SDS011;45554;51.096;16.976;2022-08-03T12:18:56;2.50;;;1.40;;
59685;SDS011;45554;51.096;16.976;2022-08-03T12:21:48;3.70;;;1.40;;
59685;SDS011;45554;51.096;16.976;2022-08-03T12:24:24;2.80;;;1.30;;
59685;SDS011;45554;51.096;16.976;2022-08-03T12:26:54;2.70;;;1.40;;
59685;SDS011;45554;51.096;16.976;2022-08-03T12:29:26;3.70;;;1.30;;
59685;SDS011;45554;51.096;16.976;2022-08-03T12:31:55;3.80;;;1.50;;
59685;SDS011;45554;51.096;16.976;2022-08-03T12:34:23;3.90;;;1.40;;
59685;SDS011;45554;51.096;16.976;2022-08-03T12:36:57;2.70;;;1.30;;
59685;SDS011;45554;51.096;16.976;2022-08-03T12:39:26;4.00;;;1.60;;
59685;SDS011;45554;51.096;16.976;2022-08-03T12:41:57;2.30;;;1.40;;
59685;SDS011;45554;51.096;16.976;2022-08-03T12:44:31;3.00;;;1.40;;
59685;SDS011;45554;51.096;16.976;2022-08-03T12:47:02;3.40;;;1.20;;
59685;SDS011;45554;51.096;16.976;2022-08-03T12:49:48;1.60;;;1.30;;
59685;SDS011;45554;51.096;16.976;2022-08-03T12:52:21;2.30;;;1.30;;
59685;SDS011;45554;51.096;16.976;2022-08-03T12:54:53;3.00;;;1.30;;
59685;SDS011;45554;51.096;16.976;2022-08-03T12:57:38;3.60;;;1.40;;
59685;SDS011;45554;51.096;16.976;2022-08-03T13:00:12;2.70;;;1.30;;
59685;SDS011;45554;51.096;16.976;2022-08-03T13:03:03;1.50;;;1.30;;
59685;SDS011;45554;51.096;16.976;2022-08-03T13:06:01;2.80;;;1.40;;
59685;SDS011;45554;51.096;16.976;2022-08-03T13:08:30;4.30;;;1.30;;
59685;SDS011;45554;51.096;16.976;2022-08-03T13:10:58;1.40;;;1.20;;
59685;SDS011;45554;51.096;16.976;2022-08-03T13:13:39;2.10;;;1.30;;
59685;SDS011;45554;51.096;16.976;2022-08-03T13:16:07;3.30;;;1.10;;
59685;SDS011;45554;51.096;16.976;2022-08-03T13:18:35;3.10;;;1.20;;
59685;SDS011;45554;51.096;16.976;2022-08-03T13:21:05;2.80;;;1.30;;
59685;SDS011;45554;51.096;16.976;2022-08-03T13:23:33;2.30;;;1.10;;
59685;SDS011;45554;51.096;16.976;2022-08-03T13:29:11;1.20;;;1.10;;
59685;SDS011;45554;51.096;16.976;2022-08-03T13:31:50;2.40;;;1.10;;
59685;SDS011;45554;51.096;16.976;2022-08-03T13:34:21;2.50;;;1.20;;
59685;SDS011;45554;51.096;16.976;2022-08-03T13:37:02;2.30;;;1.30;;
59685;SDS011;45554;51.096;16.976;2022-08-03T13:39:38;2.70;;;1.40;;
59685;SDS011;45554;51.096;16.976;2022-08-03T13:42:36;2.80;;;1.10;;
59685;SDS011;45554;51.096;16.976;2022-08-03T13:45:05;2.10;;;1.30;;
59685;SDS011;45554;51.096;16.976;2022-08-03T13:47:34;4.10;;;1.00;;
59685;SDS011;45554;51.096;16.976;2022-08-03T13:50:13;2.20;;;1.20;;
59685;SDS011;45554;51.096;16.976;2022-08-03T13:52:51;3.00;;;1.20;;
59685;SDS011;45554;51.096;16.976;2022-08-03T13:55:20;1.20;;;1.00;;
59685;SDS011;45554;51.096;16.976;2022-08-03T13:57:51;3.10;;;1.30;;
59685;SDS011;45554;51.096;16.976;2022-08-03T14:00:34;2.30;;;1.20;;
59685;SDS011;45554;51.096;16.976;2022-08-03T14:03:02;2.50;;;1.10;;
59685;SDS011;45554;51.096;16.976;2022-08-03T14:05:45;5.00;;;1.10;;
59685;SDS011;45554;51.096;16.976;2022-08-03T14:08:14;3.80;;;1.10;;
59685;SDS011;45554;51.096;16.976;2022-08-03T14:10:42;1.40;;;1.00;;
59685;SDS011;45554;51.096;16.976;2022-08-03T14:13:13;2.10;;;1.10;;
59685;SDS011;45554;51.096;16.976;2022-08-03T14:15:45;3.40;;;1.20;;
59685;SDS011;45554;51.096;16.976;2022-08-03T14:18:18;3.70;;;1.10;;
59685;SDS011;45554;51.096;16.976;2022-08-03T14:20:56;2.70;;;1.00;;
59685;SDS011;45554;51.096;16.976;2022-08-03T14:23:32;2.40;;;1.20;;
59685;SDS011;45554;51.096;16.976;2022-08-03T14:26:01;2.70;;;1.20;;
59685;SDS011;45554;51.096;16.976;2022-08-03T14:28:30;1.90;;;1.10;;
59685;SDS011;45554;51.096;16.976;2022-08-03T14:30:58;2.30;;;1.10;;
59685;SDS011;45554;51.096;16.976;2022-08-03T14:33:26;2.20;;;1.20;;
59685;SDS011;45554;51.096;16.976;2022-08-03T14:35:57;2.80;;;1.10;;
59685;SDS011;45554;51.096;16.976;2022-08-03T14:38:25;3.90;;;1.30;;
59685;SDS011;45554;51.096;16.976;2022-08-03T14:40:53;1.20;;;0.90;;
59685;SDS011;45554;51.096;16.976;2022-08-03T14:43:22;3.60;;;1.00;;
59685;SDS011;45554;51.096;16.976;2022-08-03T14:45:50;2.80;;;1.20;;
59685;SDS011;45554;51.096;16.976;2022-08-03T14:48:20;2.70;;;1.10;;
59685;SDS011;45554;51.096;16.976;2022-08-03T14:51:10;2.30;;;1.20;;
59685;SDS011;45554;51.096;16.976;2022-08-03T14:53:38;1.50;;;0.90;;
59685;SDS011;45554;51.096;16.976;2022-08-03T14:56:07;2.40;;;1.20;;
59685;SDS011;45554;51.096;16.976;2022-08-03T14:58:37;1.90;;;0.80;;
59685;SDS011;45554;51.096;16.976;2022-08-03T15:01:05;1.50;;;1.00;;
59685;SDS011;45554;51.096;16.976;2022-08-03T15:03:54;2.40;;;1.00;;
59685;SDS011;45554;51.096;16.976;2022-08-03T15:06:22;3.40;;;1.10;;
59685;SDS011;45554;51.096;16.976;2022-08-03T15:08:50;2.90;;;1.00;;
59685;SDS011;45554;51.096;16.976;2022-08-03T15:11:38;2.30;;;1.20;;
59685;SDS011;45554;51.096;16.976;2022-08-03T15:14:06;2.40;;;1.00;;
59685;SDS011;45554;51.096;16.976;2022-08-03T15:16:36;1.50;;;1.00;;
59685;SDS011;45554;51.096;16.976;2022-08-03T15:19:05;3.00;;;1.00;;
59685;SDS011;45554;51.096;16.976;2022-08-03T15:21:53;2.00;;;1.10;;
59685;SDS011;45554;51.096;16.976;2022-08-03T15:24:21;2.50;;;1.00;;
59685;SDS011;45554;51.096;16.976;2022-08-03T15:26:50;1.60;;;0.90;;
59685;SDS011;45554;51.096;16.976;2022-08-03T15:29:18;1.50;;;0.90;;
59685;SDS011;45554;51.096;16.976;2022-08-03T15:32:06;2.10;;;0.90;;
59685;SDS011;45554;51.096;16.976;2022-08-03T15:34:36;2.50;;;1.10;;
59685;SDS011;45554;51.096;16.976;2022-08-03T15:37:03;2.80;;;1.00;;
59685;SDS011;45554;51.096;16.976;2022-08-03T15:39:43;1.30;;;1.00;;
59685;SDS011;45554;51.096;16.976;2022-08-03T15:42:27;2.20;;;1.00;;
59685;SDS011;45554;51.096;16.976;2022-08-03T15:44:56;2.10;;;1.10;;
59685;SDS011;45554;51.096;16.976;2022-08-03T15:47:24;3.70;;;1.00;;
59685;SDS011;45554;51.096;16.976;2022-08-03T15:49:52;1.40;;;0.80;;
59685;SDS011;45554;51.096;16.976;2022-08-03T15:52:20;4.30;;;1.00;;
59685;SDS011;45554;51.096;16.976;2022-08-03T15:54:49;1.80;;;0.90;;
59685;SDS011;45554;51.096;16.976;2022-08-03T15:57:16;3.60;;;1.20;;
59685;SDS011;45554;51.096;16.976;2022-08-03T15:59:45;1.00;;;0.90;;
59685;SDS011;45554;51.096;16.976;2022-08-03T16:02:14;3.40;;;1.30;;
59685;SDS011;45554;51.096;16.976;2022-08-03T16:04:43;3.10;;;1.00;;
59685;SDS011;45554;51.096;16.976;2022-08-03T16:07:11;2.10;;;1.00;;
59685;SDS011;45554;51.096;16.976;2022-08-03T16:09:42;4.50;;;1.30;;
59685;SDS011;45554;51.096;16.976;2022-08-03T16:12:10;2.80;;;1.10;;